Terminal Aerodrome Forecast
Issued by NWS Grand Forks, ND

Home | Current Version | Previous Version | Graphics & Text | Print | Product List | Glossary On
Versions: 1 2 3 4 5 6 7 8 9 10 11 12 13 14 15 16 17 18 19 20 21 22 23 24
000
FTUS43 KFGF 222125 AAA
TAFGFK
TAF AMD
KGFK 222125Z 2221/2318 16019G28KT P6SM OVC060
      TEMPO 2222/2223 -SN OVC035
     FM230100 15015KT P6SM OVC035
     FM231000 16013KT P6SM BKN150=

USA.gov is the U.S. government's official web portal to all federal, state and local government web resources and services.